Time;durP1;ratioP1;P1;durP2;ratioP2;P2;SDS_P1;SDS_P2;PMS_P1;PMS_P2;Temp;Humidity;BMP_temperature;BMP_pressure;BME280_temperature;BME280_humidity;BME280_pressure;Samples;Min_cycle;Max_cycle;Signal;HPM_P1;HPM_P2
2023/03/07 00:02:16;;;;;;;9.98;2.38;;;;;;;1.31;79.49;98581.03;5093373;28;20093;-65
2023/03/07 00:04:45;;;;;;;4.30;2.28;;;;;;;1.28;79.13;98578.47;5093732;28;20062;-65
2023/03/07 00:07:14;;;;;;;;;;;;;;;1.15;79.73;98579.03;5093695;28;20044;-65
2023/03/07 00:09:43;;;;;;;0.52;0.52;;;;;;;1.09;79.22;98576.44;5093341;28;20010;-65
2023/03/07 00:12:13;;;;;;;1.70;1.60;;;;;;;1.02;79.20;98577.13;5092967;28;20502;-65
2023/03/07 00:14:42;;;;;;;2.63;1.52;;;;;;;0.92;79.61;98580.28;5093256;28;20486;-65
2023/03/07 00:17:11;;;;;;;2.23;2.10;;;;;;;0.84;79.74;98576.75;5093439;28;20042;-65
2023/03/07 00:19:42;;;;;;;1.42;1.33;;;;;;;0.79;79.91;98570.84;5093226;28;20079;-65
2023/03/07 00:22:11;;;;;;;1.73;1.52;;;;;;;0.82;80.18;98570.88;5093275;28;20093;-65
2023/03/07 00:24:42;;;;;;;1.85;1.75;;;;;;;0.86;80.47;98559.25;5093255;28;20048;-65
2023/03/07 00:27:11;;;;;;;1.58;1.48;;;;;;;0.88;80.41;98555.94;5093448;28;20046;-65
2023/03/07 00:29:41;;;;;;;1.63;1.53;;;;;;;0.84;80.55;98556.69;5093235;28;20081;-65
2023/03/07 00:32:10;;;;;;;0.98;0.88;;;;;;;0.85;80.78;98558.38;5092530;28;20429;-65
2023/03/07 00:34:39;;;;;;;3.25;3.03;;;;;;;0.87;80.74;98558.41;5091813;28;20036;-65
2023/03/07 00:37:08;;;;;;;0.60;0.60;;;;;;;0.92;80.49;98552.66;5093050;28;20049;-65
2023/03/07 00:39:37;;;;;;;1.87;1.77;;;;;;;0.98;81.06;98557.81;5092996;28;20052;-65
2023/03/07 00:42:06;;;;;;;1.90;1.80;;;;;;;1.04;80.71;98550.38;5093040;28;20514;-65
2023/03/07 00:44:35;;;;;;;4.60;2.93;;;;;;;1.02;80.85;98554.53;5093269;28;20064;-65
2023/03/07 00:47:05;;;;;;;1.73;1.63;;;;;;;1.00;80.55;98546.13;5091796;28;20043;-64
2023/03/07 00:49:34;;;;;;;2.25;1.88;;;;;;;0.98;81.13;98545.25;5095539;28;20397;-65
2023/03/07 00:52:03;;;;;;;3.25;3.03;;;;;;;0.98;81.26;98534.34;5096543;28;20494;-64
2023/03/07 00:54:32;;;;;;;3.78;1.73;;;;;;;0.96;80.72;98529.28;5096769;28;20063;-64
2023/03/07 00:57:01;;;;;;;2.03;1.92;;;;;;;0.96;81.07;98531.78;5095620;28;20117;-64
2023/03/07 00:59:30;;;;;;;3.13;2.25;;;;;;;0.97;81.55;98533.50;5095111;28;20040;-64
2023/03/07 01:01:59;;;;;;;2.97;2.77;;;;;;;0.97;80.88;98531.00;5096656;28;20480;-64
2023/03/07 01:04:29;;;;;;;3.10;2.87;;;;;;;0.97;80.84;98525.97;5096594;28;20093;-64
2023/03/07 01:06:58;;;;;;;2.13;2.03;;;;;;;0.92;81.39;98532.56;5095153;28;20529;-64
2023/03/07 01:09:27;;;;;;;2.13;1.77;;;;;;;0.84;81.12;98528.25;5096181;28;20040;-64
2023/03/07 01:11:56;;;;;;;2.33;1.95;;;;;;;0.80;81.11;98529.81;5078138;28;20056;-64
2023/03/07 01:14:26;;;;;;;2.47;1.58;;;;;;;0.79;81.26;98535.69;5096494;28;20043;-64
2023/03/07 01:16:55;;;;;;;2.03;1.50;;;;;;;0.72;80.72;98522.97;5096317;28;20566;-64
2023/03/07 01:19:24;;;;;;;1.15;1.15;;;;;;;0.72;81.30;98521.28;5094902;28;20056;-64
2023/03/07 01:21:56;;;;;;;1.98;1.60;;;;;;;0.70;80.97;98517.09;5096030;28;20046;-64
2023/03/07 01:24:25;;;;;;;0.52;0.52;;;;;;;0.62;80.90;98519.44;5096345;28;20043;-65
2023/03/07 01:26:54;;;;;;;0.70;0.70;;;;;;;0.62;81.24;98519.44;5094740;28;20036;-65
2023/03/07 01:29:24;;;;;;;2.78;2.60;;;;;;;0.69;81.23;98508.72;5096325;28;20048;-64
2023/03/07 01:31:54;;;;;;;0.82;0.82;;;;;;;0.66;81.55;98516.16;5096080;28;20394;-64
2023/03/07 01:34:23;;;;;;;2.17;2.08;;;;;;;0.68;81.58;98512.03;5096089;28;20043;-65
2023/03/07 01:36:52;;;;;;;0.50;0.50;;;;;;;0.68;81.32;98512.03;5095987;28;20094;-65
2023/03/07 01:39:23;;;;;;;1.25;1.17;;;;;;;0.73;81.44;98510.44;5094498;28;20060;-64
2023/03/07 01:41:59;;;;;;;14.88;2.83;;;;;;;0.72;81.50;98513.75;5094422;28;20048;-64
2023/03/07 01:44:29;;;;;;;1.88;1.77;;;;;;;0.73;81.58;98505.44;5095877;28;20067;-65
2023/03/07 01:46:59;;;;;;;0.52;0.52;;;;;;;0.76;81.39;98510.50;5094646;28;20040;-64
2023/03/07 01:49:44;;;;;;;5.57;2.00;;;;;;;0.76;81.26;98512.16;5095384;28;20056;-64
2023/03/07 01:52:20;;;;;;;0.82;0.82;;;;;;;0.74;81.47;98507.13;5095782;28;20131;-64
2023/03/07 01:54:58;;;;;;;4.25;2.00;;;;;;;0.71;81.39;98501.19;5095289;28;20040;-64
2023/03/07 01:57:32;;;;;;;1.08;1.02;;;;;;;0.66;81.54;98503.63;5095312;28;20056;-64
2023/03/07 02:00:08;;;;;;;1.40;1.30;;;;;;;0.67;81.18;98505.31;5093634;28;20072;-64
2023/03/07 02:02:45;;;;;;;0.95;0.95;;;;;;;0.71;81.17;98497.03;5095253;28;20051;-64
2023/03/07 02:05:26;;;;;;;2.85;2.25;;;;;;;0.64;81.50;98505.25;5095145;28;20045;-64
2023/03/07 02:08:01;;;;;;;1.02;0.98;;;;;;;0.60;81.23;98494.31;5093974;28;20048;-64
2023/03/07 02:10:35;;;;;;;2.58;2.38;;;;;;;0.59;81.44;98491.78;5094982;28;20040;-64
2023/03/07 02:13:04;;;;;;;6.32;3.17;;;;;;;0.55;81.34;98495.06;5094785;28;20059;-64
2023/03/07 02:15:34;;;;;;;2.28;2.15;;;;;;;0.48;81.68;98498.25;5093662;28;20046;-64
2023/03/07 02:18:05;;;;;;;1.90;1.80;;;;;;;0.47;81.45;98496.56;5093735;28;20044;-64
2023/03/07 02:20:40;;;;;;;1.13;1.10;;;;;;;0.49;81.95;98484.88;5093725;28;20122;-64
2023/03/07 02:23:19;;;;;;;0.70;0.70;;;;;;;0.47;81.51;98492.38;5094764;28;20048;-64
2023/03/07 02:25:57;;;;;;;1.73;1.63;;;;;;;0.41;81.97;98488.88;5094762;28;20051;-64
2023/03/07 02:28:29;;;;;;;2.05;1.95;;;;;;;0.31;82.00;98497.88;5093890;28;20052;-64
2023/03/07 02:30:59;;;;;;;0.93;0.93;;;;;;;0.28;82.17;98499.50;5094720;28;20063;-64
2023/03/07 02:33:31;;;;;;;5.68;3.70;;;;;;;0.24;82.18;98502.78;5093686;28;20040;-64
2023/03/07 02:36:08;;;;;;;0.93;0.93;;;;;;;0.13;82.31;98490.00;5094505;28;20051;-64
2023/03/07 02:38:44;;;;;;;1.85;1.75;;;;;;;0.16;82.36;98496.75;5094809;28;20044;-64
2023/03/07 02:41:17;;;;;;;3.95;1.73;;;;;;;0.20;82.12;98495.97;5094471;28;20040;-64
2023/03/07 02:43:47;;;;;;;4.97;2.95;;;;;;;0.21;82.20;98498.53;5094388;28;20044;-64
2023/03/07 02:46:16;;;;;;;1.58;1.48;;;;;;;0.19;82.11;98499.31;5093240;28;20048;-64
2023/03/07 02:48:45;;;;;;;1.63;1.52;;;;;;;0.17;82.26;98495.94;5094335;28;20490;-64
2023/03/07 02:51:14;;;;;;;0.77;0.77;;;;;;;0.18;82.06;98497.63;5093114;28;20033;-64
2023/03/07 02:53:45;;;;;;;0.73;0.73;;;;;;;0.23;81.72;98488.53;5094505;28;20630;-64
2023/03/07 02:56:14;;;;;;;1.05;1.05;;;;;;;0.19;81.61;98494.31;5093294;28;20044;-64
2023/03/07 02:58:43;;;;;;;7.28;3.63;;;;;;;0.20;81.81;98490.97;5093516;28;20123;-64
2023/03/07 03:01:13;;;;;;;2.35;2.17;;;;;;;0.10;81.54;98492.44;5093225;28;20392;-64
2023/03/07 03:03:43;;;;;;;4.38;2.88;;;;;;;0.04;81.49;98496.50;5094404;28;20406;-64
2023/03/07 03:06:14;;;;;;;2.22;1.85;;;;;;;0.03;81.44;98493.13;5094071;28;20485;-64
2023/03/07 03:08:43;;;;;;;2.73;2.53;;;;;;;0.07;81.76;98484.03;5094320;28;20379;-64
2023/03/07 03:11:12;;;;;;;4.13;3.40;;;;;;;0.06;81.49;98492.34;5093543;28;20071;-64
2023/03/07 03:13:41;;;;;;;2.92;2.47;;;;;;;0.09;81.64;98492.41;5092524;28;20083;-64
2023/03/07 03:16:10;;;;;;;1.17;1.03;;;;;;;0.15;81.72;98490.03;5092644;28;20051;-64
2023/03/07 03:18:41;;;;;;;;;;;;;;;0.15;81.44;98488.38;5094558;28;20055;-64
2023/03/07 03:21:10;;;;;;;2.08;1.98;;;;;;;0.13;81.69;98485.00;5093822;28;19931;-64
2023/03/07 03:23:39;;;;;;;2.92;2.72;;;;;;;-0.01;81.27;98482.19;5092504;28;20502;-64
2023/03/07 03:26:10;;;;;;;5.50;4.20;;;;;;;-0.06;81.25;98488.78;5094052;28;20379;-64
2023/03/07 03:28:40;;;;;;;;;;;;;;;-0.06;81.51;98488.78;5094501;28;20056;-64
2023/03/07 03:31:13;;;;;;;1.25;1.20;;;;;;;-0.08;81.47;98490.41;5092801;28;19920;-64
2023/03/07 03:33:44;;;;;;;2.17;2.05;;;;;;;-0.06;81.60;98488.78;5092809;28;20126;-64
2023/03/07 03:36:16;;;;;;;4.68;2.95;;;;;;;0.07;81.65;98484.03;5093887;28;20064;-64
2023/03/07 03:38:49;;;;;;;2.60;1.45;;;;;;;0.10;81.58;98489.13;5093725;28;20058;-64
2023/03/07 03:41:18;;;;;;;6.28;4.97;;;;;;;0.08;81.49;98491.56;5093594;28;20047;-64
2023/03/07 03:43:49;;;;;;;0.93;0.93;;;;;;;0.09;81.27;98480.72;5092418;28;20044;-64
2023/03/07 03:46:19;;;;;;;18.73;3.85;;;;;;;0.04;81.41;98499.00;5092374;28;20044;-64
2023/03/07 03:48:53;;;;;;;3.65;2.05;;;;;;;0.06;81.21;98487.34;5092340;28;20046;-64
2023/03/07 03:51:25;;;;;;;1.73;1.63;;;;;;;0.07;80.96;98489.03;5093553;28;20052;-64
2023/03/07 03:53:57;;;;;;;12.20;2.72;;;;;;;0.06;81.39;98484.81;5093814;28;20051;-64
2023/03/07 03:56:28;;;;;;;2.60;2.40;;;;;;;-0.03;80.89;98498.88;5093391;28;20048;-64
2023/03/07 03:58:57;;;;;;;2.45;2.30;;;;;;;-0.09;80.88;98498.72;5092244;28;20032;-64
2023/03/07 04:01:28;;;;;;;0.77;0.77;;;;;;;-0.10;80.76;98499.53;5093391;28;20044;-64
2023/03/07 04:04:00;;;;;;;4.78;2.15;;;;;;;-0.11;80.82;98499.50;5093670;28;20387;-64
2023/03/07 04:06:31;;;;;;;3.72;3.42;;;;;;;-0.08;81.04;98495.41;5092493;28;20051;-64
2023/03/07 04:09:02;;;;;;;9.40;2.70;;;;;;;-0.08;80.91;98500.44;5092278;28;20113;-64
2023/03/07 04:11:31;;;;;;;2.13;2.03;;;;;;;-0.08;80.85;98500.44;5092515;28;20102;-64
2023/03/07 04:14:01;;;;;;;3.17;2.88;;;;;;;-0.13;80.87;98502.00;5092076;28;20048;-64
2023/03/07 04:16:29;;;;;;;2.85;2.60;;;;;;;-0.13;81.00;98507.00;5091953;28;20040;-64
2023/03/07 04:19:01;;;;;;;1.83;1.73;;;;;;;-0.13;80.86;98516.19;5093563;28;20402;-64
2023/03/07 04:21:30;;;;;;;2.63;2.22;;;;;;;-0.17;80.84;98509.41;5093691;28;20040;-64
2023/03/07 04:24:00;;;;;;;3.35;3.05;;;;;;;-0.24;81.01;98505.09;5097138;28;20076;-64
2023/03/07 04:26:31;;;;;;;3.38;2.55;;;;;;;-0.32;80.69;98509.06;5097007;28;20101;-64
2023/03/07 04:29:00;;;;;;;2.07;1.97;;;;;;;-0.30;80.85;98504.91;5097012;28;20048;-64
2023/03/07 04:31:39;;;;;;;;;;;;;;;-0.29;81.14;98496.59;5097761;28;20068;-64
2023/03/07 04:34:12;;;;;;;4.05;2.22;;;;;;;-0.26;80.98;98500.00;5097729;28;19919;-64
2023/03/07 04:36:41;;;;;;;0.60;0.60;;;;;;;-0.28;81.14;98496.63;5096759;28;20070;-64
2023/03/07 04:39:13;;;;;;;0.47;0.47;;;;;;;-0.24;81.08;98497.56;5097145;28;20097;-64
2023/03/07 04:41:42;;;;;;;4.28;3.17;;;;;;;-0.24;81.18;98498.38;5095541;28;20501;-64
2023/03/07 04:44:22;;;;;;;3.10;2.33;;;;;;;-0.27;80.81;98493.31;5096718;28;20052;-64
2023/03/07 04:46:51;;;;;;;3.03;2.83;;;;;;;-0.26;80.77;98501.66;5096597;28;20043;-64
2023/03/07 04:49:21;;;;;;;1.60;1.50;;;;;;;-0.31;80.90;98506.56;5095459;28;20058;-64
2023/03/07 04:51:50;;;;;;;1.63;1.52;;;;;;;-0.36;80.95;98503.13;5095460;28;20064;-64
2023/03/07 04:54:20;;;;;;;5.55;3.85;;;;;;;-0.45;80.84;98502.91;5095366;28;20048;-64
2023/03/07 04:56:51;;;;;;;5.07;4.60;;;;;;;-0.50;80.76;98496.94;5096410;28;20052;-64
2023/03/07 04:59:19;;;;;;;2.30;1.43;;;;;;;-0.47;81.08;98503.69;5096351;28;20052;-64
2023/03/07 05:01:50;;;;;;;1.98;1.88;;;;;;;-0.51;80.74;98502.78;5096732;28;20342;-64
2023/03/07 05:04:19;;;;;;;2.15;2.00;;;;;;;-0.49;80.89;98501.16;5096465;28;20060;-64
2023/03/07 05:06:49;;;;;;;1.70;1.60;;;;;;;-0.50;80.83;98506.09;5096291;28;20044;-64
2023/03/07 05:09:18;;;;;;;4.43;4.00;;;;;;;-0.54;80.90;98507.72;5095243;28;20477;-64
2023/03/07 05:11:47;;;;;;;2.15;1.95;;;;;;;-0.52;80.90;98506.09;5095977;28;20051;-64
2023/03/07 05:14:16;;;;;;;1.83;1.73;;;;;;;-0.54;80.81;98507.72;5095379;28;20483;-64
2023/03/07 05:16:45;;;;;;;3.88;3.13;;;;;;;-0.54;80.58;98506.84;5094831;28;20036;-64
2023/03/07 05:19:14;;;;;;;3.47;1.73;;;;;;;-0.58;80.69;98505.97;5096280;28;20040;-64
2023/03/07 05:21:43;;;;;;;3.00;2.80;;;;;;;-0.53;80.78;98509.41;5095795;28;20169;-64
2023/03/07 05:24:14;;;;;;;4.32;3.95;;;;;;;-0.57;80.53;98510.13;5095980;28;20074;-64
2023/03/07 05:26:43;;;;;;;1.88;1.77;;;;;;;-0.57;80.64;98502.63;5095092;28;20043;-64
2023/03/07 05:29:12;;;;;;;5.43;1.92;;;;;;;-0.56;80.67;98504.31;5095826;28;20572;-64
2023/03/07 05:31:41;;;;;;;1.20;1.13;;;;;;;-0.54;80.54;98506.84;5095824;28;20505;-64
2023/03/07 05:34:10;;;;;;;2.10;1.95;;;;;;;-0.52;80.67;98518.59;5093911;28;20028;-64
2023/03/07 05:36:40;;;;;;;1.98;1.63;;;;;;;-0.56;80.56;98509.34;5095677;28;20052;-64
2023/03/07 05:39:10;;;;;;;3.60;3.25;;;;;;;-0.62;80.70;98519.19;5095337;28;20063;-64
2023/03/07 05:41:40;;;;;;;5.13;4.70;;;;;;;-0.60;80.81;98510.06;5095798;28;20083;-64
2023/03/07 05:44:11;;;;;;;4.72;4.35;;;;;;;-0.54;81.02;98511.88;5094706;28;20051;-64
2023/03/07 05:46:40;;;;;;;3.90;3.08;;;;;;;-0.53;80.88;98509.41;5094573;28;20055;-64
2023/03/07 05:49:09;;;;;;;2.00;1.88;;;;;;;-0.51;81.02;98522.81;5095439;28;20078;-64
2023/03/07 05:51:38;;;;;;;3.42;3.13;;;;;;;-0.45;81.04;98517.94;5095181;28;20044;-64
2023/03/07 05:54:07;;;;;;;4.87;2.70;;;;;;;-0.33;81.24;98525.75;5094453;28;20063;-64
2023/03/07 05:56:36;;;;;;;3.92;2.40;;;;;;;-0.26;80.90;98524.22;5095136;28;20284;-64
2023/03/07 05:59:10;;;;;;;4.97;3.75;;;;;;;-0.21;81.25;98513.50;5094244;28;20064;-64
2023/03/07 06:01:39;;;;;;;7.88;3.53;;;;;;;-0.11;81.34;98529.59;5095422;28;20052;-64
2023/03/07 06:04:08;;;;;;;9.13;8.03;;;;;;;-0.08;81.52;98525.50;5094276;28;20036;-64
2023/03/07 06:06:37;;;;;;;7.68;7.00;;;;;;;-0.01;81.55;98531.50;5095442;28;20124;-64
2023/03/07 06:09:06;;;;;;;27.10;7.68;;;;;;;0.00;81.50;98535.72;5094449;28;20048;-64
2023/03/07 06:11:35;;;;;;;6.43;5.93;;;;;;;0.11;81.26;98533.41;5093690;28;20040;-64
2023/03/07 06:14:04;;;;;;;12.75;8.75;;;;;;;0.16;81.87;98534.38;5094146;28;20457;-64
2023/03/07 06:16:34;;;;;;;8.43;6.65;;;;;;;0.25;81.90;98544.59;5094002;28;20070;-64
2023/03/07 06:19:04;;;;;;;3.72;3.50;;;;;;;0.33;82.10;98538.09;5094844;28;20051;-64
2023/03/07 06:21:33;;;;;;;5.57;4.45;;;;;;;0.41;81.88;98531.53;5093694;28;20048;-64
2023/03/07 06:24:02;;;;;;;3.13;2.92;;;;;;;0.54;82.04;98529.34;5093509;28;20036;-64
2023/03/07 06:26:31;;;;;;;3.90;3.60;;;;;;;0.55;81.95;98522.66;5095036;28;20063;-64
2023/03/07 06:29:00;;;;;;;3.83;3.53;;;;;;;0.55;82.14;98522.66;5093445;28;20050;-64
2023/03/07 06:31:29;;;;;;;3.25;2.80;;;;;;;0.62;81.88;98521.97;5093821;28;20043;-64
2023/03/07 06:33:59;;;;;;;5.20;4.00;;;;;;;0.60;81.56;98513.56;5094536;28;20047;-64
2023/03/07 06:36:28;;;;;;;3.92;3.63;;;;;;;0.56;81.91;98515.16;5094756;28;20060;-64
2023/03/07 06:39:00;;;;;;;3.60;3.17;;;;;;;0.66;82.17;98513.66;5095008;28;20040;-64
2023/03/07 06:41:29;;;;;;;4.60;3.83;;;;;;;0.77;81.71;98517.22;5093158;28;20039;-64
2023/03/07 06:44:01;;;;;;;2.53;2.33;;;;;;;0.82;81.91;98524.81;5094730;28;20044;-64
2023/03/07 06:46:33;;;;;;;3.33;3.03;;;;;;;0.90;81.82;98521.66;5094559;28;20044;-64
2023/03/07 06:49:08;;;;;;;3.40;2.45;;;;;;;1.05;81.29;98533.66;5094366;28;20050;-64
2023/03/07 06:51:37;;;;;;;2.22;2.13;;;;;;;1.18;81.42;98531.38;5093325;28;20052;-64
2023/03/07 06:54:08;;;;;;;1.40;1.30;;;;;;;1.33;81.13;98521.59;5094515;28;20496;-64
2023/03/07 06:56:37;;;;;;;3.22;3.00;;;;;;;1.43;81.41;98521.75;5092921;28;20093;-64
2023/03/07 06:59:05;;;;;;;1.73;1.63;;;;;;;1.50;80.88;98528.56;5092783;28;20482;-65
2023/03/07 07:01:35;;;;;;;5.03;2.65;;;;;;;1.59;80.54;98538.75;5092791;28;20052;-65
2023/03/07 07:04:05;;;;;;;2.60;2.40;;;;;;;1.78;81.08;98535.69;5093124;28;20501;-65
2023/03/07 07:06:36;;;;;;;3.45;3.17;;;;;;;1.99;80.97;98531.00;5093106;28;20048;-65
2023/03/07 07:09:05;;;;;;;1.27;1.17;;;;;;;1.93;80.44;98520.84;5092711;28;20039;-65
2023/03/07 07:11:38;;;;;;;0.90;0.88;;;;;;;2.03;80.74;98522.69;5092768;28;20048;-66
2023/03/07 07:14:11;;;;;;;1.48;1.35;;;;;;;2.10;80.36;98519.41;5093900;28;20052;-65
2023/03/07 07:16:43;;;;;;;1.02;0.98;;;;;;;2.18;80.10;98522.91;5092836;28;20485;-65
2023/03/07 07:19:12;;;;;;;2.33;2.17;;;;;;;2.34;80.55;98517.22;5092476;28;20051;-66
2023/03/07 07:21:43;;;;;;;2.60;2.40;;;;;;;2.39;79.86;98523.16;5094242;28;20634;-66
2023/03/07 07:24:13;;;;;;;5.13;4.60;;;;;;;2.48;79.92;98524.94;5092627;28;20052;-66
2023/03/07 07:26:42;;;;;;;;;;;;;;;2.71;79.77;98526.09;5094410;28;20044;-66
2023/03/07 07:29:11;;;;;;;1.58;1.50;;;;;;;2.87;78.46;98519.53;5092507;28;19943;-66
2023/03/07 07:31:41;;;;;;;1.92;1.83;;;;;;;2.78;79.07;98519.44;5092719;28;20044;-66
2023/03/07 07:34:10;;;;;;;3.03;2.40;;;;;;;2.78;78.81;98532.03;5092769;28;20051;-66
2023/03/07 07:36:39;;;;;;;9.67;3.00;;;;;;;2.88;78.21;98518.72;5093551;28;20040;-66
2023/03/07 07:39:14;;;;;;;5.68;4.72;;;;;;;2.92;78.55;98528.84;5093726;28;20462;-66
2023/03/07 07:41:46;;;;;;;2.97;2.72;;;;;;;2.87;77.59;98527.09;5092887;28;20127;-66
2023/03/07 07:44:17;;;;;;;5.07;3.63;;;;;;;3.01;77.64;98528.06;5093127;28;20497;-65
2023/03/07 07:46:54;;;;;;;3.45;3.03;;;;;;;3.21;77.49;98529.13;5093575;28;20048;-65
2023/03/07 07:49:23;;;;;;;1.88;1.77;;;;;;;3.36;77.87;98525.06;5093662;28;20379;-66
2023/03/07 07:51:52;;;;;;;1.33;1.23;;;;;;;3.39;76.75;98524.25;5092347;28;20048;-66
2023/03/07 07:54:22;;;;;;;3.42;3.13;;;;;;;3.35;76.60;98525.06;5093496;28;20040;-65
2023/03/07 07:56:51;;;;;;;0.73;0.73;;;;;;;3.39;77.19;98524.25;5094507;28;20101;-65
2023/03/07 07:59:22;;;;;;;4.75;3.65;;;;;;;3.44;77.31;98522.59;5105666;28;20473;-65
2023/03/07 08:01:52;;;;;;;5.18;2.97;;;;;;;3.50;76.36;98530.25;5099611;28;20044;-66
2023/03/07 08:04:21;;;;;;;1.87;1.67;;;;;;;3.57;76.79;98528.63;5097129;28;20068;-65
2023/03/07 08:06:49;;;;;;;4.53;4.13;;;;;;;3.53;77.12;98540.34;5097754;28;20040;-65
2023/03/07 08:09:19;;;;;;;0.77;0.77;;;;;;;3.55;76.71;98536.16;5097350;28;20036;-65
2023/03/07 08:11:49;;;;;;;3.93;2.83;;;;;;;3.53;76.58;98542.84;5097594;28;20436;-65
2023/03/07 08:14:17;;;;;;;3.60;2.13;;;;;;;3.29;76.40;98533.41;5095180;28;20043;-65
2023/03/07 08:16:46;;;;;;;4.53;1.58;;;;;;;3.17;76.91;98542.50;5105198;28;20048;-65
2023/03/07 08:19:15;;;;;;;7.85;7.30;;;;;;;3.05;76.59;98535.69;5106315;28;20127;-65
2023/03/07 08:21:44;;;;;;;5.63;3.45;;;;;;;3.01;77.14;98548.22;5117530;28;20044;-66
2023/03/07 08:24:13;;;;;;;1.40;1.30;;;;;;;3.06;77.70;98546.59;5117420;27;20126;-66
2023/03/07 08:26:41;;;;;;;2.88;1.98;;;;;;;3.01;77.70;98535.63;5115203;28;20132;-65
2023/03/07 08:29:11;;;;;;;1.83;1.73;;;;;;;2.96;78.63;98537.25;5107897;28;20032;-65
2023/03/07 08:31:44;;;;;;;0.73;0.73;;;;;;;2.98;78.18;98540.63;5097318;28;20436;-65
2023/03/07 08:34:13;;;;;;;3.28;2.90;;;;;;;2.99;79.02;98535.63;5099479;28;20047;-65
2023/03/07 08:36:41;;;;;;;5.90;3.30;;;;;;;3.07;78.31;98533.19;5097015;28;20048;-65
2023/03/07 08:39:10;;;;;;;5.72;2.83;;;;;;;3.19;79.27;98525.75;5096694;28;20048;-65
2023/03/07 08:41:40;;;;;;;23.95;1.67;;;;;;;3.27;79.22;98535.06;5097043;28;20047;-65
2023/03/07 08:44:09;;;;;;;1.05;0.95;;;;;;;3.31;78.47;98525.88;5096718;28;20045;-65
2023/03/07 08:46:39;;;;;;;2.28;2.10;;;;;;;3.37;78.73;98533.47;5096322;28;20097;-66
2023/03/07 08:49:08;;;;;;;2.58;2.38;;;;;;;3.33;78.52;98524.22;5096222;28;20093;-65
2023/03/07 08:51:36;;;;;;;2.83;2.57;;;;;;;3.44;78.80;98527.66;5096425;28;20040;-65
2023/03/07 08:54:05;;;;;;;3.93;2.63;;;;;;;3.59;79.07;98539.56;5096794;28;20032;-65
2023/03/07 08:56:34;;;;;;;1.67;1.57;;;;;;;3.69;78.83;98539.66;5096524;28;20040;-65
2023/03/07 08:59:03;;;;;;;2.27;2.10;;;;;;;3.83;78.17;98538.06;5096388;28;20055;-65
2023/03/07 09:01:32;;;;;;;2.05;1.52;;;;;;;4.02;78.51;98534.84;5096349;28;20067;-65
2023/03/07 09:04:03;;;;;;;8.33;2.93;;;;;;;4.16;78.11;98536.59;5096278;28;20047;-66
2023/03/07 09:06:32;;;;;;;1.95;1.65;;;;;;;4.23;77.73;98538.31;5096322;28;20052;-65
2023/03/07 09:09:01;;;;;;;6.05;2.42;;;;;;;4.46;77.30;98536.78;5095022;28;20085;-66
2023/03/07 09:11:30;;;;;;;3.15;2.92;;;;;;;4.76;77.09;98536.91;5096433;28;20045;-66
2023/03/07 09:13:59;;;;;;;3.05;2.80;;;;;;;4.92;76.44;98532.75;5055916;28;20040;-65
2023/03/07 09:16:27;;;;;;;2.03;1.93;;;;;;;5.20;76.03;98534.50;5055836;28;20056;-65
2023/03/07 09:18:56;;;;;;;1.50;1.40;;;;;;;5.31;75.08;98531.16;5056051;28;20453;-65
2023/03/07 09:21:26;;;;;;;4.50;1.93;;;;;;;5.49;75.10;98526.97;5055994;28;20057;-65
2023/03/07 09:23:55;;;;;;;1.45;1.35;;;;;;;5.57;74.25;98528.63;5056170;28;20434;-65
2023/03/07 09:26:24;;;;;;;1.40;1.30;;;;;;;5.47;73.58;98523.59;5056065;28;20132;-64
2023/03/07 09:28:53;;;;;;;3.00;2.80;;;;;;;5.53;73.13;98513.44;5055940;28;20124;-64
2023/03/07 09:31:21;;;;;;;1.65;1.55;;;;;;;5.69;72.90;98515.13;5055873;28;20387;-65
2023/03/07 09:33:50;;;;;;;3.57;3.27;;;;;;;5.79;72.36;98516.81;5055465;28;20093;-65
2023/03/07 09:36:19;;;;;;;2.03;1.92;;;;;;;5.78;71.74;98512.63;5055541;28;20095;-64
2023/03/07 09:38:50;;;;;;;3.28;2.22;;;;;;;5.67;71.67;98514.28;5055569;28;20087;-64
2023/03/07 09:41:54;;;;;;;2.28;2.00;;;;;;;5.53;71.24;98518.50;5055617;28;20494;-65
2023/03/07 09:44:36;;;;;;;1.63;1.52;;;;;;;5.30;71.38;98514.28;5053546;28;20049;-65
2023/03/07 09:47:52;;;;;;;3.40;2.20;;;;;;;5.36;72.24;98506.72;5055517;28;20450;-64
2023/03/07 09:50:29;;;;;;;3.20;2.78;;;;;;;5.30;72.80;98501.63;5055226;28;20045;-64
2023/03/07 09:53:02;;;;;;;1.42;1.33;;;;;;;5.51;73.33;98505.03;5055539;28;20140;-64
2023/03/07 09:55:33;;;;;;;2.40;2.20;;;;;;;5.67;73.17;98501.63;5055010;28;20049;-65
2023/03/07 09:58:07;;;;;;;3.83;3.05;;;;;;;5.68;73.18;98499.13;5055442;28;20044;-65
2023/03/07 10:00:41;;;;;;;1.38;1.27;;;;;;;5.64;72.87;98506.72;5055168;28;20044;-65
2023/03/07 10:03:21;;;;;;;1.83;1.67;;;;;;;5.60;72.39;98494.91;5055274;28;20453;-64
2023/03/07 10:05:52;;;;;;;1.33;1.23;;;;;;;5.47;72.07;98503.34;5053006;28;20056;-65
2023/03/07 10:08:26;;;;;;;2.80;2.60;;;;;;;5.32;71.82;98504.19;5055680;28;20458;-64
2023/03/07 10:11:06;;;;;;;5.38;3.60;;;;;;;5.27;71.90;98504.16;5054529;28;20037;-65
2023/03/07 10:13:51;;;;;;;2.53;2.33;;;;;;;5.30;72.38;98501.63;5088353;28;20056;-64
2023/03/07 10:16:27;;;;;;;2.25;2.05;;;;;;;5.33;72.17;98504.16;5094992;28;20044;-64
2023/03/07 10:19:05;;;;;;;3.70;2.45;;;;;;;5.34;71.66;98500.81;5095201;28;20397;-64
2023/03/07 10:21:44;;;;;;;2.28;2.08;;;;;;;5.37;71.63;98494.91;5105511;28;20040;-64
2023/03/07 10:24:46;;;;;;;1.83;1.70;;;;;;;5.34;71.50;98493.22;5097504;28;20048;-64
2023/03/07 10:27:18;;;;;;;1.88;1.77;;;;;;;5.39;70.88;98483.94;5089727;28;20393;-64
2023/03/07 10:29:48;;;;;;;2.70;2.22;;;;;;;5.41;71.07;98489.84;5095043;28;20040;-65
2023/03/07 10:32:23;;;;;;;1.77;1.67;;;;;;;5.47;70.86;98488.16;5094681;28;20040;-65
2023/03/07 10:34:59;;;;;;;4.38;1.95;;;;;;;5.52;70.54;98482.25;5097202;28;20055;-64
2023/03/07 10:37:44;;;;;;;0.88;0.85;;;;;;;5.56;70.21;98478.03;5094548;28;20158;-64
2023/03/07 10:40:19;;;;;;;1.35;1.25;;;;;;;5.66;69.82;98478.03;5094623;28;20040;-64
2023/03/07 10:42:50;;;;;;;1.13;1.02;;;;;;;5.69;69.92;98467.03;5094613;28;20098;-64
2023/03/07 10:45:19;;;;;;;1.17;1.15;;;;;;;5.69;69.45;98469.56;5094440;28;20097;-64
2023/03/07 10:47:48;;;;;;;2.10;1.90;;;;;;;5.67;69.40;98468.75;5094340;28;20123;-65
2023/03/07 10:50:27;;;;;;;3.13;2.83;;;;;;;5.50;69.31;98458.63;5094180;28;20040;-64
2023/03/07 10:52:58;;;;;;;2.30;2.10;;;;;;;5.45;69.48;98456.97;5094562;28;20048;-64
2023/03/07 10:55:39;;;;;;;0.65;0.65;;;;;;;5.45;69.27;98459.50;5094127;28;20050;-64
2023/03/07 10:58:19;;;;;;;2.28;2.08;;;;;;;5.50;69.15;98452.72;5094048;28;20122;-65
2023/03/07 11:01:01;;;;;;;3.42;2.60;;;;;;;5.47;69.03;98457.81;5094378;28;20057;-64
2023/03/07 11:03:33;;;;;;;2.47;2.28;;;;;;;5.43;69.43;98446.81;5094807;28;20051;-65
2023/03/07 11:06:32;;;;;;;3.38;2.88;;;;;;;5.40;69.55;98444.28;5093950;28;20075;-64
2023/03/07 11:09:16;;;;;;;3.83;3.53;;;;;;;5.38;69.65;98436.72;5100929;28;20078;-64
2023/03/07 11:11:52;;;;;;;1.25;1.15;;;;;;;5.39;69.79;98435.88;5113817;28;20067;-64
2023/03/07 11:14:23;;;;;;;2.92;2.67;;;;;;;5.47;69.59;98428.25;5114534;28;20070;-65
2023/03/07 11:16:54;;;;;;;1.70;1.52;;;;;;;5.62;69.71;98420.66;5114454;28;20058;-65
2023/03/07 11:19:36;;;;;;;0.88;0.88;;;;;;;5.85;68.78;98420.66;5106426;28;20137;-65
2023/03/07 11:22:16;;;;;;;1.52;1.42;;;;;;;6.01;68.57;98422.31;5098587;28;20068;-65
2023/03/07 11:24:53;;;;;;;6.55;1.85;;;;;;;6.22;67.87;98406.19;5099051;28;20122;-65
2023/03/07 11:27:24;;;;;;;1.38;1.27;;;;;;;6.42;67.78;98404.41;5114592;28;20139;-65
2023/03/07 11:30:16;;;;;;;2.83;2.05;;;;;;;6.57;67.55;98399.28;5114029;28;20059;-65
2023/03/07 11:32:59;;;;;;;1.48;1.38;;;;;;;6.71;67.22;98403.41;5113324;28;20417;-64
2023/03/07 11:35:43;;;;;;;2.63;2.35;;;;;;;6.93;67.11;98391.44;5114087;28;20044;-65
2023/03/07 11:38:21;;;;;;;5.65;2.35;;;;;;;7.24;66.96;98390.34;5110285;28;20046;-64
2023/03/07 11:40:58;;;;;;;1.52;1.42;;;;;;;7.25;67.20;98383.56;5107043;28;20059;-64
2023/03/07 11:43:47;;;;;;;0.50;0.50;;;;;;;7.30;66.25;98374.22;5104050;28;20052;-65
2023/03/07 11:46:27;;;;;;;3.85;3.25;;;;;;;7.39;65.76;98379.19;5104176;28;20032;-65
2023/03/07 11:49:08;;;;;;;9.90;2.03;;;;;;;7.36;66.03;98371.63;5104178;28;20035;-64
2023/03/07 11:51:52;;;;;;;2.45;2.25;;;;;;;7.17;66.42;98370.09;5093082;28;20044;-64
2023/03/07 11:54:31;;;;;;;3.75;3.30;;;;;;;6.96;66.35;98357.59;5093708;28;20051;-65
2023/03/07 11:57:11;;;;;;;1.02;0.93;;;;;;;6.82;66.53;98362.75;5093661;28;20113;-65
2023/03/07 12:00:07;;;;;;;1.55;1.45;;;;;;;6.69;66.61;98356.91;5093908;28;20048;-65
2023/03/07 12:02:51;;;;;;;;;;;;;;;6.65;66.89;98355.28;5085667;28;20130;-64
2023/03/07 12:05:45;;;;;;;1.52;1.08;;;;;;;6.64;67.46;98346.00;5093344;28;19983;-64